Time;durP1;ratioP1;P1;durP2;ratioP2;P2;SDS_P1;SDS_P2;PMS_P1;PMS_P2;Temp;Humidity;BMP_temperature;BMP_pressure;BME280_temperature;BME280_humidity;BME280_pressure;Samples;Min_cycle;Max_cycle;Signal;HPM_P1;HPM_P2
2021/08/17 00:00:24;;;;;;;7.50;6.80;;;;;;;25.61;45.12;98676.16;4999869;28;20649;-88
2021/08/17 00:02:50;;;;;;;6.90;6.30;;;;;;;25.62;45.07;98683.13;4999963;28;20196;-88
2021/08/17 00:05:17;;;;;;;6.50;5.90;;;;;;;25.61;44.88;98676.16;4983806;28;20195;-86
2021/08/17 00:07:44;;;;;;;7.37;6.67;;;;;;;25.61;44.76;98676.16;4983440;28;20591;-87
2021/08/17 00:10:11;;;;;;;7.40;6.70;;;;;;;25.63;44.61;98671.41;4999314;28;20258;-86
2021/08/17 00:12:37;;;;;;;7.07;6.37;;;;;;;25.62;44.75;98673.28;4983408;28;20249;-86
2021/08/17 00:15:06;;;;;;;6.77;6.17;;;;;;;25.63;44.78;98676.75;4999478;28;20199;-86
2021/08/17 00:17:32;;;;;;;7.10;6.50;;;;;;;25.65;44.82;98677.38;5000072;28;20191;-87
2021/08/17 00:19:59;;;;;;;6.83;6.23;;;;;;;25.64;44.87;98670.41;4999181;28;20199;-86
2021/08/17 00:22:25;;;;;;;7.30;6.60;;;;;;;25.61;44.78;98671.66;4999165;28;20609;-86
2021/08/17 00:24:54;;;;;;;7.13;6.43;;;;;;;25.60;44.94;98674.50;4999271;28;20559;-86
2021/08/17 00:27:21;;;;;;;7.13;6.43;;;;;;;25.59;44.82;98679.03;4982992;28;20203;-86
2021/08/17 00:29:47;;;;;;;6.90;6.30;;;;;;;25.61;45.04;98679.66;4982886;28;20559;-86
2021/08/17 00:32:15;;;;;;;6.40;5.80;;;;;;;25.61;44.74;98676.97;4998860;28;20554;-86
2021/08/17 00:34:42;;;;;;;6.40;5.80;;;;;;;25.61;44.71;98682.34;4999639;28;20203;-86
2021/08/17 00:37:08;;;;;;;6.50;5.90;;;;;;;25.61;44.74;98673.47;5018119;28;20191;-86
2021/08/17 00:39:37;;;;;;;6.83;6.23;;;;;;;25.60;44.84;98671.84;5004252;28;20195;-86
2021/08/17 00:42:08;;;;;;;6.57;5.97;;;;;;;25.61;44.79;98668.13;4996855;28;20190;-86
2021/08/17 00:44:35;;;;;;;6.47;5.90;;;;;;;25.62;44.84;98667.09;5015158;28;20266;-87
2021/08/17 00:47:03;;;;;;;6.43;5.90;;;;;;;25.64;44.80;98662.38;5003398;28;20203;-87
2021/08/17 00:49:31;;;;;;;6.53;5.93;;;;;;;25.65;44.43;98662.19;5003419;28;20233;-87
2021/08/17 00:51:59;;;;;;;6.60;6.00;;;;;;;25.64;44.71;98663.22;4990959;28;20219;-87
2021/08/17 00:54:26;;;;;;;6.20;5.67;;;;;;;25.55;44.98;98659.06;4999131;28;20187;-87
2021/08/17 00:56:59;;;;;;;6.33;5.73;;;;;;;25.59;44.84;98657.66;5016450;28;20197;-87
2021/08/17 00:59:29;;;;;;;6.10;5.60;;;;;;;25.56;44.75;98662.59;4998615;28;20303;-87
2021/08/17 01:01:56;;;;;;;6.73;6.13;;;;;;;25.53;44.88;98663.00;4998738;28;20201;-87
2021/08/17 01:04:23;;;;;;;6.33;5.73;;;;;;;25.46;44.80;98658.41;5017553;28;20187;-87
2021/08/17 01:06:49;;;;;;;6.33;5.83;;;;;;;25.45;45.14;98654.09;5017402;28;20206;-87
2021/08/17 01:09:16;;;;;;;6.20;5.60;;;;;;;25.42;45.13;98653.69;5017478;28;20190;-87
2021/08/17 01:11:45;;;;;;;6.37;5.77;;;;;;;25.42;45.30;98657.16;5017714;28;20211;-86
2021/08/17 01:14:13;;;;;;;5.93;5.43;;;;;;;25.42;45.33;98657.16;5016777;28;20201;-87
2021/08/17 01:16:41;;;;;;;6.23;5.63;;;;;;;25.43;45.07;98658.81;5016601;28;20186;-87
2021/08/17 01:19:10;;;;;;;6.00;5.50;;;;;;;25.42;45.11;98657.16;4998057;28;20198;-87
2021/08/17 01:21:37;;;;;;;5.90;5.37;;;;;;;25.42;45.05;98654.50;4998149;28;20194;-87
2021/08/17 01:24:03;;;;;;;6.47;5.87;;;;;;;25.43;45.33;98652.66;4998270;28;20563;-87
2021/08/17 01:26:30;;;;;;;6.07;5.47;;;;;;;25.43;45.07;98658.81;5015500;28;20253;-87
2021/08/17 01:28:57;;;;;;;6.13;5.53;;;;;;;25.46;45.08;98658.41;4998177;28;20199;-87
2021/08/17 01:31:24;;;;;;;5.53;5.03;;;;;;;25.43;45.08;98664.16;4981833;28;20219;-87
2021/08/17 01:33:51;;;;;;;5.73;5.23;;;;;;;25.36;45.19;98674.00;4981979;28;20198;-87
2021/08/17 01:36:18;;;;;;;6.23;5.63;;;;;;;25.35;45.26;98670.50;4982132;28;20205;-86
2021/08/17 01:38:49;;;;;;;5.47;4.97;;;;;;;25.35;45.31;98677.72;5015379;28;20628;-87
2021/08/17 01:41:16;;;;;;;5.87;5.37;;;;;;;25.37;45.10;98691.69;4981946;28;20204;-87
2021/08/17 01:43:49;;;;;;;5.00;4.60;;;;;;;25.34;45.41;98686.75;4997893;28;20203;-87
2021/08/17 01:46:16;;;;;;;5.00;4.60;;;;;;;25.32;45.51;98696.78;4998306;28;20190;-87
2021/08/17 01:48:44;;;;;;;5.30;4.80;;;;;;;25.35;45.20;98696.41;4981764;28;20203;-86
2021/08/17 01:51:11;;;;;;;5.33;4.87;;;;;;;25.36;45.11;98690.03;4997950;28;20257;-86
2021/08/17 01:53:38;;;;;;;5.20;4.80;;;;;;;25.40;44.92;98695.78;4997843;28;20248;-86
2021/08/17 01:56:14;;;;;;;5.30;4.90;;;;;;;25.41;45.11;98690.25;4997537;28;20203;-86
2021/08/17 01:58:41;;;;;;;5.50;5.00;;;;;;;25.36;45.12;98695.38;4998262;28;20198;-86
2021/08/17 02:01:09;;;;;;;5.37;4.87;;;;;;;25.36;45.16;98690.84;4997462;28;20207;-86
2021/08/17 02:03:36;;;;;;;5.20;4.80;;;;;;;25.39;45.09;98697.66;4997796;28;20195;-87
2021/08/17 02:06:04;;;;;;;5.53;5.03;;;;;;;25.35;45.07;98701.75;5014870;28;20205;-86
2021/08/17 02:08:31;;;;;;;5.83;5.33;;;;;;;25.35;45.40;98704.44;4981877;28;20225;-86
2021/08/17 02:10:58;;;;;;;5.20;4.70;;;;;;;25.34;45.28;98700.09;5016457;28;20206;-86
2021/08/17 02:13:27;;;;;;;5.17;4.77;;;;;;;25.32;45.13;98704.81;4986839;28;20202;-86
2021/08/17 02:15:53;;;;;;;5.47;4.97;;;;;;;25.30;45.29;98706.84;5001574;28;20249;-86
2021/08/17 02:18:20;;;;;;;5.30;4.80;;;;;;;25.28;45.49;98703.56;4985659;28;20190;-87
2021/08/17 02:20:47;;;;;;;5.10;4.70;;;;;;;25.32;45.04;98720.81;5001521;28;20187;-87
2021/08/17 02:23:13;;;;;;;5.57;5.07;;;;;;;25.28;45.32;98704.41;5001476;28;20205;-87
2021/08/17 02:25:40;;;;;;;5.23;4.73;;;;;;;25.29;45.26;98707.88;5001267;28;20205;-87
2021/08/17 02:28:07;;;;;;;5.07;4.67;;;;;;;25.32;45.14;98718.16;4985235;28;20194;-87
2021/08/17 02:30:33;;;;;;;5.90;5.03;;;;;;;25.30;45.16;98712.19;5001297;28;20195;-87
2021/08/17 02:33:00;;;;;;;4.87;4.47;;;;;;;25.29;45.31;98721.22;5018764;28;20755;-87
2021/08/17 02:35:27;;;;;;;4.70;4.30;;;;;;;25.25;45.52;98720.00;4985136;28;20199;-87
2021/08/17 02:37:53;;;;;;;5.10;4.60;;;;;;;25.25;45.30;98720.00;5001177;28;20194;-87
2021/08/17 02:40:20;;;;;;;4.80;4.30;;;;;;;25.22;45.41;98711.34;4985690;28;20524;-88
2021/08/17 02:42:47;;;;;;;4.73;4.33;;;;;;;25.26;45.27;98721.63;5000989;28;20199;-88
2021/08/17 02:45:13;;;;;;;4.90;4.50;;;;;;;25.27;45.07;98725.94;5000693;28;20199;-87
2021/08/17 02:47:40;;;;;;;4.87;4.47;;;;;;;25.25;45.47;98720.00;5002337;28;20199;-87
2021/08/17 02:50:07;;;;;;;5.10;4.70;;;;;;;25.27;45.15;98717.94;5002992;28;20624;-87
2021/08/17 02:52:35;;;;;;;5.37;4.87;;;;;;;25.27;45.03;98713.44;4999639;28;20670;-87
2021/08/17 02:55:02;;;;;;;4.50;4.13;;;;;;;25.31;45.21;98713.84;4999787;28;20203;-87
2021/08/17 02:57:28;;;;;;;4.90;4.50;;;;;;;25.31;45.10;98724.53;4983541;28;20690;-87
2021/08/17 02:59:55;;;;;;;5.73;4.40;;;;;;;25.28;45.34;98720.41;4999796;28;20202;-87
2021/08/17 03:02:22;;;;;;;4.67;4.27;;;;;;;25.28;45.23;98716.91;5017210;28;20214;-88
2021/08/17 03:04:48;;;;;;;4.67;4.27;;;;;;;25.29;45.31;98710.53;4999762;28;20660;-87
2021/08/17 03:07:15;;;;;;;4.67;4.27;;;;;;;25.27;45.36;98707.25;5000059;28;20191;-87
2021/08/17 03:09:42;;;;;;;4.97;4.57;;;;;;;25.30;45.10;98701.50;4999561;28;20226;-87
2021/08/17 03:12:08;;;;;;;4.87;4.47;;;;;;;25.30;45.13;98701.50;4999809;28;20338;-87
2021/08/17 03:14:35;;;;;;;4.50;4.10;;;;;;;25.32;44.99;98702.13;4983428;28;20225;-87
2021/08/17 03:17:03;;;;;;;4.50;4.10;;;;;;;25.31;44.82;98703.16;4983607;28;20207;-87
2021/08/17 03:19:29;;;;;;;4.80;4.40;;;;;;;25.29;45.32;98705.19;4999682;28;20194;-88
2021/08/17 03:21:56;;;;;;;4.60;4.20;;;;;;;25.26;45.07;98705.59;4999213;28;20194;-87
2021/08/17 03:24:22;;;;;;;4.40;4.00;;;;;;;25.29;45.03;98703.38;4999027;28;20222;-88
2021/08/17 03:26:49;;;;;;;4.10;3.80;;;;;;;25.27;45.15;98701.91;5016734;28;20183;-89
2021/08/17 03:29:15;;;;;;;4.63;4.20;;;;;;;25.22;45.38;98695.34;4982958;28;20198;-86
2021/08/17 03:31:42;;;;;;;4.60;4.20;;;;;;;25.19;45.38;98695.75;4982645;28;20668;-86
2021/08/17 03:34:08;;;;;;;4.60;4.20;;;;;;;25.22;45.42;98699.84;4998818;28;20220;-87
2021/08/17 03:36:36;;;;;;;4.80;4.40;;;;;;;25.20;45.21;98704.56;4983019;28;20198;-87
2021/08/17 03:39:03;;;;;;;4.60;4.20;;;;;;;25.26;45.30;98710.94;4998847;28;20209;-87
2021/08/17 03:41:30;;;;;;;4.37;3.97;;;;;;;25.23;45.31;98702.31;4999051;28;20257;-87
2021/08/17 03:43:56;;;;;;;4.57;4.17;;;;;;;25.23;45.11;98707.66;4970299;28;1364951;-87
2021/08/17 03:46:23;;;;;;;4.33;3.93;;;;;;;25.25;45.02;98702.13;5000081;28;20429;-87
2021/08/17 03:48:49;;;;;;;4.53;4.13;;;;;;;25.28;45.22;98700.88;4999665;28;20203;-87
2021/08/17 03:51:16;;;;;;;4.03;3.73;;;;;;;25.27;44.99;98701.91;5000719;28;20190;-87
2021/08/17 03:53:43;;;;;;;4.00;3.70;;;;;;;25.25;45.25;98702.13;4985886;28;20225;-87
2021/08/17 03:56:09;;;;;;;4.30;3.90;;;;;;;25.23;45.01;98706.81;5034175;28;20206;-86
2021/08/17 03:58:36;;;;;;;3.80;3.50;;;;;;;25.22;44.94;98713.19;5020825;28;20222;-87
2021/08/17 04:01:02;;;;;;;4.40;4.03;;;;;;;25.19;45.13;98701.06;5038173;28;20190;-87
2021/08/17 04:03:29;;;;;;;4.17;3.87;;;;;;;25.16;45.18;98706.78;5014529;28;20199;-87
2021/08/17 04:05:56;;;;;;;4.47;4.07;;;;;;;25.21;45.37;98703.53;4999711;28;20205;-87
2021/08/17 04:08:22;;;;;;;4.60;4.20;;;;;;;25.19;45.42;98709.09;4999748;28;20203;-88
2021/08/17 04:10:50;;;;;;;4.10;3.70;;;;;;;25.20;45.44;98709.91;5016626;28;20187;-87
2021/08/17 04:13:16;;;;;;;4.00;3.70;;;;;;;25.15;45.43;98710.47;4999344;28;20265;-87
2021/08/17 04:15:43;;;;;;;4.13;3.80;;;;;;;25.14;45.27;98711.50;5017292;28;20198;-87
2021/08/17 04:18:10;;;;;;;4.30;3.90;;;;;;;25.08;45.54;98715.78;4999256;28;20202;-87
2021/08/17 04:20:36;;;;;;;4.03;3.73;;;;;;;25.07;45.29;98722.16;4999265;28;20540;-87
2021/08/17 04:23:03;;;;;;;4.80;4.40;;;;;;;25.07;45.36;98730.16;4999379;28;20191;-87
2021/08/17 04:25:29;;;;;;;4.27;3.87;;;;;;;25.09;45.56;98732.66;5016531;28;20202;-89
2021/08/17 04:27:56;;;;;;;3.97;3.67;;;;;;;25.08;45.30;98734.47;5016522;28;20194;-88
2021/08/17 04:30:23;;;;;;;3.83;3.53;;;;;;;25.07;45.59;98735.50;4983059;28;20573;-88
2021/08/17 04:32:49;;;;;;;4.17;3.87;;;;;;;25.05;45.42;98736.75;4983046;28;20241;-88
2021/08/17 04:35:19;;;;;;;4.13;3.73;;;;;;;25.05;45.48;98736.75;4998939;28;20198;-89
2021/08/17 04:37:47;;;;;;;4.10;3.80;;;;;;;25.05;45.55;98737.56;4999545;28;20203;-87
2021/08/17 04:40:14;;;;;;;3.93;3.63;;;;;;;25.04;45.38;98743.09;4999501;28;20265;-87
2021/08/17 04:42:41;;;;;;;4.00;3.70;;;;;;;25.06;45.40;98733.84;4998991;28;20201;-87
2021/08/17 04:45:09;;;;;;;3.67;3.37;;;;;;;25.05;45.68;98736.75;4982719;28;20489;-87
2021/08/17 04:47:46;;;;;;;4.13;3.83;;;;;;;25.07;45.64;98743.50;4998898;28;20228;-87
2021/08/17 04:50:14;;;;;;;3.50;3.30;;;;;;;25.05;45.69;98739.41;4999548;28;20203;-88
2021/08/17 04:52:41;;;;;;;3.57;3.27;;;;;;;25.05;45.58;98732.22;4999712;28;20218;-87
2021/08/17 04:55:09;;;;;;;4.13;3.63;;;;;;;25.07;45.56;98734.69;5002893;28;20191;-88
2021/08/17 04:58:08;;;;;;;4.00;3.70;;;;;;;25.09;45.48;98738.00;5001055;28;20209;-87
2021/08/17 05:00:43;;;;;;;3.93;3.63;;;;;;;25.07;45.38;98742.72;4967609;28;20207;-88
2021/08/17 05:03:10;;;;;;;3.63;3.33;;;;;;;25.08;45.41;98741.69;4983111;28;20584;-89
2021/08/17 05:05:37;;;;;;;4.30;3.90;;;;;;;25.07;45.44;98740.03;5016020;28;20201;-89
2021/08/17 05:08:08;;;;;;;3.93;3.63;;;;;;;25.05;45.57;98740.22;4982710;28;20197;-88
2021/08/17 05:10:35;;;;;;;4.00;3.70;;;;;;;25.04;45.37;98740.44;4998864;28;20202;-88
2021/08/17 05:13:03;;;;;;;3.93;3.63;;;;;;;25.06;45.30;98751.75;4998446;28;20214;-89
2021/08/17 05:15:31;;;;;;;3.93;3.63;;;;;;;25.07;45.38;98756.06;4982637;28;20212;-89
2021/08/17 05:17:58;;;;;;;3.87;3.57;;;;;;;25.08;45.24;98757.72;4982337;28;20191;-89
2021/08/17 05:20:25;;;;;;;3.90;3.60;;;;;;;25.07;45.22;98761.41;4998572;28;20677;-88
2021/08/17 05:22:52;;;;;;;3.70;3.40;;;;;;;25.12;45.08;98764.28;4982177;28;20585;-89
2021/08/17 05:25:19;;;;;;;3.73;3.43;;;;;;;25.10;45.20;98761.00;4998204;28;20195;-88
2021/08/17 05:27:48;;;;;;;3.53;3.23;;;;;;;25.06;45.21;98768.56;4982374;28;20206;-89
2021/08/17 05:30:16;;;;;;;4.00;3.70;;;;;;;25.06;45.26;98770.44;4999111;28;20245;-89
2021/08/17 05:32:43;;;;;;;3.97;3.67;;;;;;;25.08;45.35;98765.72;4998059;28;20554;-88
2021/08/17 05:35:10;;;;;;;3.50;3.20;;;;;;;25.09;45.35;98764.69;4998248;28;20517;-88
2021/08/17 05:37:37;;;;;;;3.70;3.37;;;;;;;25.06;45.42;98757.09;4998187;28;20190;-88
2021/08/17 05:40:05;;;;;;;3.70;3.40;;;;;;;25.09;45.49;98770.88;4997979;28;20202;-88
2021/08/17 05:42:32;;;;;;;3.90;3.60;;;;;;;25.07;45.38;98766.75;4981736;28;20205;-89
2021/08/17 05:44:59;;;;;;;4.07;3.77;;;;;;;25.04;45.47;98772.47;4998159;28;20183;-89
2021/08/17 05:47:26;;;;;;;3.47;3.17;;;;;;;25.06;45.43;98775.78;4998463;28;20198;-87
2021/08/17 05:49:53;;;;;;;3.60;3.30;;;;;;;25.03;45.43;98776.16;4997794;28;20198;-87
2021/08/17 05:52:20;;;;;;;4.03;3.63;;;;;;;25.08;45.35;98784.41;4981582;28;20226;-87
2021/08/17 05:54:46;;;;;;;4.00;3.67;;;;;;;25.07;45.24;98788.91;5015113;28;20534;-87
2021/08/17 05:57:13;;;;;;;3.90;3.60;;;;;;;25.09;45.01;98786.91;4997755;28;20226;-87
2021/08/17 05:59:39;;;;;;;3.80;3.50;;;;;;;25.08;45.07;98787.06;4997842;28;20191;-87
2021/08/17 06:02:06;;;;;;;3.70;3.40;;;;;;;25.07;45.29;98788.91;4997702;28;20194;-87
2021/08/17 06:04:33;;;;;;;3.80;3.50;;;;;;;25.10;45.18;98798.38;4997564;28;20209;-88
2021/08/17 06:07:00;;;;;;;3.93;3.60;;;;;;;25.10;45.14;98803.72;4981972;28;20289;-87
2021/08/17 06:09:26;;;;;;;3.87;3.57;;;;;;;25.10;45.21;98798.38;4981673;28;20594;-90
2021/08/17 06:11:57;;;;;;;3.70;3.40;;;;;;;25.07;45.36;98799.59;4997458;28;20205;-87
2021/08/17 06:14:24;;;;;;;4.00;3.70;;;;;;;25.07;45.20;98802.25;4997613;28;20628;-86
2021/08/17 06:16:51;;;;;;;4.20;3.80;;;;;;;25.09;45.25;98808.25;4981697;28;20202;-86
2021/08/17 06:19:18;;;;;;;3.83;3.53;;;;;;;25.08;44.97;98800.44;4997688;28;20620;-86
2021/08/17 06:21:45;;;;;;;3.20;3.00;;;;;;;25.10;45.09;98806.38;4997997;28;20568;-86
2021/08/17 06:24:12;;;;;;;3.53;3.23;;;;;;;25.08;45.29;98800.44;4981279;28;20197;-86
2021/08/17 06:26:39;;;;;;;3.80;3.50;;;;;;;25.07;45.30;98804.13;4997611;28;20187;-86
2021/08/17 06:29:05;;;;;;;3.63;3.20;;;;;;;25.05;45.29;98796.28;5014675;28;20190;-86
2021/08/17 06:31:32;;;;;;;3.43;3.13;;;;;;;24.99;45.24;98806.94;4997711;28;20209;-86
2021/08/17 06:34:00;;;;;;;3.03;2.83;;;;;;;24.96;45.40;98810.84;4997406;28;20238;-87
2021/08/17 06:36:28;;;;;;;3.63;3.33;;;;;;;24.98;45.59;98805.28;4997501;28;20234;-86
2021/08/17 06:38:55;;;;;;;4.33;3.80;;;;;;;24.94;45.42;98800.34;5014626;28;20507;-86
2021/08/17 06:41:22;;;;;;;8.70;6.77;;;;;;;24.87;45.43;98803.97;4981272;28;20528;-87
2021/08/17 06:43:48;;;;;;;7.80;4.97;;;;;;;24.76;45.47;98808.81;4997571;28;20186;-87
2021/08/17 06:46:15;;;;;;;5.90;5.30;;;;;;;24.77;45.24;98807.00;5015292;28;20190;-87
2021/08/17 06:48:42;;;;;;;5.97;5.37;;;;;;;24.82;45.01;98807.22;5014765;28;20217;-87
2021/08/17 06:51:10;;;;;;;6.30;5.50;;;;;;;24.88;44.30;98798.47;4998053;28;20506;-87
2021/08/17 06:53:37;;;;;;;6.20;5.60;;;;;;;24.95;44.50;98795.84;4997488;28;20265;-88
2021/08/17 06:56:05;;;;;;;5.80;5.20;;;;;;;25.02;44.61;98795.88;4981364;28;20208;-88
2021/08/17 06:58:32;;;;;;;5.90;5.30;;;;;;;25.02;44.83;98804.69;4999679;28;20198;-87
2021/08/17 07:00:58;;;;;;;5.73;5.20;;;;;;;25.02;44.38;98782.53;4984674;28;20245;-88
2021/08/17 07:03:25;;;;;;;5.53;5.03;;;;;;;25.08;44.23;98790.56;4984919;28;20223;-88
2021/08/17 07:05:52;;;;;;;5.77;5.20;;;;;;;25.13;44.54;98789.16;5001363;28;20199;-90
2021/08/17 07:08:19;;;;;;;5.27;4.80;;;;;;;25.14;44.73;98786.28;5003426;28;20201;-88
2021/08/17 07:10:46;;;;;;;6.00;5.07;;;;;;;25.14;44.38;98786.28;5004116;28;20240;-89
2021/08/17 07:13:28;;;;;;;5.97;4.90;;;;;;;25.20;44.29;98790.84;4987886;28;20218;-88
2021/08/17 07:15:55;;;;;;;6.77;5.30;;;;;;;25.26;44.21;98796.41;5001462;28;20204;-88
2021/08/17 07:18:23;;;;;;;5.40;4.90;;;;;;;25.26;44.20;98801.75;4984413;28;20198;-91
2021/08/17 07:20:49;;;;;;;5.43;4.93;;;;;;;25.23;44.38;98800.28;5000688;28;20286;-88
2021/08/17 07:23:16;;;;;;;7.03;5.10;;;;;;;25.27;44.26;98796.22;5000545;28;20202;-89
2021/08/17 07:25:43;;;;;;;6.17;5.57;;;;;;;25.33;43.89;98799.94;5000124;28;20195;-88
2021/08/17 07:28:10;;;;;;;6.17;5.57;;;;;;;25.26;44.44;98793.75;5017309;28;20249;-90
2021/08/17 07:30:39;;;;;;;7.77;6.50;;;;;;;25.25;44.36;98789.44;4984293;28;20230;-88
2021/08/17 07:33:06;;;;;;;7.63;6.27;;;;;;;25.27;44.10;98814.09;4999993;28;20210;-88
2021/08/17 07:35:32;;;;;;;7.33;6.60;;;;;;;25.25;44.03;98805.44;5017481;28;20198;-88
2021/08/17 07:38:00;;;;;;;7.83;6.20;;;;;;;25.23;44.39;98819.00;5000496;28;20225;-89
2021/08/17 07:40:28;;;;;;;7.73;6.10;;;;;;;25.23;44.31;98813.66;5000318;28;20195;-88
2021/08/17 07:42:55;;;;;;;7.97;6.20;;;;;;;25.24;44.23;98809.97;4983794;28;20531;-88
2021/08/17 07:45:23;;;;;;;7.13;6.43;;;;;;;25.23;44.54;98810.97;4984105;28;20590;-89
2021/08/17 07:48:09;;;;;;;8.43;6.20;;;;;;;25.21;44.51;98819.22;5003073;28;20171;-88
2021/08/17 07:50:38;;;;;;;7.73;6.63;;;;;;;25.25;44.30;98818.81;5017386;28;20187;-88
2021/08/17 07:53:09;;;;;;;7.10;6.40;;;;;;;25.29;44.22;98825.41;4999870;28;20215;-89
2021/08/17 07:55:37;;;;;;;8.30;7.40;;;;;;;25.27;44.18;98824.78;5000205;28;20635;-89
2021/08/17 07:58:04;;;;;;;8.77;6.90;;;;;;;25.28;44.57;98821.06;5016942;28;20186;-88
2021/08/17 08:00:31;;;;;;;8.97;7.40;;;;;;;25.34;44.10;98820.31;5000165;28;20200;-89
2021/08/17 08:02:57;;;;;;;9.60;7.73;;;;;;;25.36;44.09;98818.25;5017367;28;20183;-88
2021/08/17 08:05:25;;;;;;;7.90;7.10;;;;;;;25.37;44.12;98822.59;5003293;28;20214;-87
2021/08/17 08:07:52;;;;;;;10.57;7.77;;;;;;;25.44;44.18;98820.75;5002190;28;20194;-88
2021/08/17 08:10:19;;;;;;;11.07;7.87;;;;;;;25.49;43.87;98823.72;4998424;28;20208;-89
2021/08/17 08:12:45;;;;;;;9.23;7.97;;;;;;;25.47;43.54;98831.03;4999086;28;20227;-90
2021/08/17 08:15:13;;;;;;;9.90;8.43;;;;;;;25.43;43.74;98829.78;4982489;28;20210;-89
2021/08/17 08:17:39;;;;;;;10.53;8.30;;;;;;;25.44;43.46;98820.75;4999297;28;20198;-91
2021/08/17 08:20:08;;;;;;;10.23;8.47;;;;;;;25.51;43.70;98818.16;4999927;28;20201;-88
2021/08/17 08:22:35;;;;;;;9.80;8.73;;;;;;;25.47;43.59;98822.22;4999592;28;20190;-89
2021/08/17 08:25:04;;;;;;;11.53;8.93;;;;;;;25.44;43.79;98826.09;4999537;28;20198;-89
2021/08/17 08:27:31;;;;;;;10.77;8.50;;;;;;;25.43;43.71;98818.31;4999024;28;20406;-89
2021/08/17 08:29:57;;;;;;;10.83;8.67;;;;;;;25.43;43.66;98819.09;4999663;28;20202;-90
2021/08/17 08:32:24;;;;;;;12.20;9.27;;;;;;;25.37;43.58;98835.94;4998764;28;20199;-90
2021/08/17 08:34:51;;;;;;;10.10;8.57;;;;;;;25.35;43.77;98840.66;4983229;28;20541;-89
2021/08/17 08:37:18;;;;;;;10.00;8.63;;;;;;;25.35;43.91;98836.13;4998933;28;20205;-90
2021/08/17 08:39:46;;;;;;;11.07;8.83;;;;;;;25.33;43.57;98837.34;4982945;28;20222;-90
2021/08/17 08:42:15;;;;;;;9.47;8.47;;;;;;;25.30;43.62;98824.38;4982995;28;20229;-90
2021/08/17 08:44:43;;;;;;;11.43;8.97;;;;;;;25.28;43.48;98813.06;4999430;28;20199;-90
2021/08/17 08:47:12;;;;;;;10.50;9.40;;;;;;;25.27;43.68;98803.41;4999674;28;20572;-90
2021/08/17 08:49:42;;;;;;;12.23;8.43;;;;;;;25.26;43.73;98804.44;4998537;28;20191;-90
2021/08/17 08:52:09;;;;;;;9.70;8.67;;;;;;;25.22;43.62;98815.50;4999360;28;20241;-90
2021/08/17 08:54:36;;;;;;;10.47;9.20;;;;;;;25.21;43.60;98821.88;4997969;28;20554;-89
2021/08/17 08:57:03;;;;;;;10.93;9.83;;;;;;;25.15;43.72;98801.28;4998428;28;20198;-89
2021/08/17 08:59:30;;;;;;;9.87;8.87;;;;;;;25.13;43.80;98786.50;4982396;28;20203;-90
2021/08/17 09:02:10;;;;;;;10.80;9.67;;;;;;;25.11;43.53;98800.03;4984411;28;20253;-90
2021/08/17 09:04:47;;;;;;;11.83;9.87;;;;;;;25.06;43.51;98805.94;4983548;28;20229;-88
2021/08/17 09:07:14;;;;;;;11.33;8.80;;;;;;;25.09;43.70;98816.25;4999296;28;20201;-90
2021/08/17 09:09:41;;;;;;;10.63;9.03;;;;;;;25.03;43.79;98813.53;4998605;28;20270;-88
2021/08/17 09:12:07;;;;;;;10.97;9.77;;;;;;;24.99;43.68;98812.25;4998310;28;20265;-88
2021/08/17 09:14:35;;;;;;;10.43;9.43;;;;;;;25.04;43.69;98823.22;4998645;28;20215;-89
2021/08/17 09:17:04;;;;;;;10.67;9.37;;;;;;;25.07;43.31;98806.78;4981993;28;20202;-89
2021/08/17 09:19:50;;;;;;;11.03;9.03;;;;;;;25.06;43.15;98813.16;4998156;28;20191;-90
2021/08/17 09:22:20;;;;;;;10.97;9.87;;;;;;;25.05;43.50;98824.84;4998233;28;20191;-89
2021/08/17 09:24:49;;;;;;;12.20;10.10;;;;;;;25.08;43.66;98819.94;4982233;28;20578;-89
2021/08/17 09:27:18;;;;;;;12.47;10.47;;;;;;;25.18;42.91;98822.28;4982552;28;20205;-89
2021/08/17 09:29:47;;;;;;;11.27;10.13;;;;;;;25.23;42.94;98829.69;4982044;28;20207;-89
2021/08/17 09:32:17;;;;;;;12.03;9.77;;;;;;;25.28;42.88;98829.09;4981810;28;20204;-89
2021/08/17 09:34:48;;;;;;;10.80;9.70;;;;;;;25.28;42.88;98832.59;4997944;28;20215;-90
2021/08/17 09:37:16;;;;;;;14.10;10.10;;;;;;;25.26;42.86;98825.78;4996867;28;20198;-90
2021/08/17 09:39:49;;;;;;;12.23;10.17;;;;;;;25.34;42.72;98831.00;4981657;28;20199;-90
2021/08/17 09:42:18;;;;;;;15.20;9.63;;;;;;;25.40;42.40;98824.84;4981751;28;20301;-89
2021/08/17 09:45:00;;;;;;;11.90;9.80;;;;;;;25.40;42.82;98814.16;4981721;28;20297;-90
2021/08/17 09:47:28;;;;;;;11.83;9.73;;;;;;;25.44;42.71;98807.41;4997790;28;20190;-89
2021/08/17 09:49:54;;;;;;;11.50;9.93;;;;;;;25.54;42.54;98808.94;4981756;28;20194;-90
2021/08/17 09:52:21;;;;;;;11.40;9.13;;;;;;;25.50;42.60;98814.66;4997652;28;20208;-89
2021/08/17 09:54:49;;;;;;;10.63;9.53;;;;;;;25.52;42.63;98803.75;4981753;28;20214;-89
2021/08/17 09:57:16;;;;;;;11.17;9.67;;;;;;;25.49;42.68;98807.69;4997938;28;20285;-90
2021/08/17 09:59:46;;;;;;;12.00;9.70;;;;;;;25.51;42.61;98805.63;4981772;28;20205;-91
2021/08/17 10:02:13;;;;;;;13.87;9.87;;;;;;;25.49;42.62;98802.34;4981713;28;20612;-91
2021/08/17 10:04:42;;;;;;;11.20;9.67;;;;;;;25.48;42.74;98805.19;4997608;28;20282;-89
2021/08/17 10:07:09;;;;;;;11.50;9.90;;;;;;;25.47;43.02;98801.66;4998047;28;20198;-90
2021/08/17 10:09:37;;;;;;;11.27;10.07;;;;;;;25.44;42.86;98802.06;4981722;28;20265;-90
2021/08/17 10:12:05;;;;;;;12.30;10.30;;;;;;;25.41;43.05;98791.78;4981528;28;20205;-90
2021/08/17 10:14:32;;;;;;;12.50;9.70;;;;;;;25.44;42.96;98799.38;4997742;28;20214;-89
2021/08/17 10:16:58;;;;;;;10.90;9.80;;;;;;;25.50;43.04;98803.16;4998855;28;20209;-91
2021/08/17 10:19:30;;;;;;;11.40;9.53;;;;;;;25.52;42.83;98785.06;4997752;28;20199;-90
2021/08/17 10:21:59;;;;;;;10.23;9.17;;;;;;;25.58;42.64;98778.09;4998007;28;20183;-90
2021/08/17 10:24:32;;;;;;;10.87;9.30;;;;;;;25.59;42.55;98761.03;4998126;28;20182;-91
2021/08/17 10:27:21;;;;;;;11.50;9.50;;;;;;;25.64;42.75;98762.09;5015061;28;20254;-90
2021/08/17 10:29:52;;;;;;;11.07;9.63;;;;;;;25.62;42.68;98765.97;4981571;28;20198;-92
2021/08/17 10:32:45;;;;;;;10.40;9.30;;;;;;;25.61;42.51;98762.50;5015742;28;20206;-93
2021/08/17 10:35:34;;;;;;;10.93;9.10;;;;;;;25.56;42.68;98759.59;5002320;28;20201;-91
2021/08/17 10:38:07;;;;;;;10.07;8.97;;;;;;;25.54;42.64;98760.81;5001538;28;20281;-91
2021/08/17 10:40:49;;;;;;;10.60;9.50;;;;;;;25.50;42.78;98755.06;4985090;28;20202;-91
2021/08/17 10:43:20;;;;;;;10.47;9.37;;;;;;;25.46;43.15;98765.28;5001228;28;20198;-91
2021/08/17 10:45:59;;;;;;;10.63;9.50;;;;;;;25.46;42.94;98749.25;5001369;28;20191;-91
2021/08/17 10:51:36;;;;;;;10.83;9.43;;;;;;;25.50;43.11;98733.69;5001596;28;20198;-93
2021/08/17 10:54:03;;;;;;;9.30;8.40;;;;;;;25.53;43.04;98732.47;4985634;28;20218;-89
2021/08/17 10:56:32;;;;;;;10.97;9.30;;;;;;;25.54;42.96;98713.53;5001765;28;20534;-89
2021/08/17 10:58:58;;;;;;;10.10;9.10;;;;;;;25.57;42.91;98725.69;5000808;28;20202;-90
2021/08/17 11:01:34;;;;;;;10.03;8.93;;;;;;;25.57;42.84;98733.69;5000828;28;20253;-88
2021/08/17 11:04:02;;;;;;;9.53;8.47;;;;;;;25.72;42.59;98730.84;5000925;28;20186;-92
2021/08/17 11:06:47;;;;;;;10.50;9.40;;;;;;;25.75;42.43;98717.91;4985422;28;20199;-93
2021/08/17 11:09:35;;;;;;;10.50;9.30;;;;;;;25.78;42.18;98722.03;4985426;28;20675;-93
2021/08/17 11:12:11;;;;;;;10.00;8.83;;;;;;;25.74;42.54;98713.59;4985620;28;20608;-93
2021/08/17 11:14:40;;;;;;;10.33;9.17;;;;;;;25.71;42.64;98726.53;5001588;28;20195;-89
2021/08/17 11:17:11;;;;;;;10.30;9.30;;;;;;;25.59;42.96;98728.97;5000924;28;20632;-91
2021/08/17 11:19:41;;;;;;;10.47;9.17;;;;;;;25.59;42.91;98732.47;4984678;28;20635;-92
2021/08/17 11:22:10;;;;;;;9.63;8.60;;;;;;;25.60;42.71;98733.28;5000922;28;20202;-92
2021/08/17 11:24:42;;;;;;;10.53;9.07;;;;;;;25.64;42.56;98737.19;5001803;28;20194;-93
2021/08/17 11:27:16;;;;;;;10.60;9.50;;;;;;;25.65;42.42;98750.38;4984792;28;20194;-90
2021/08/17 11:30:03;;;;;;;10.13;9.00;;;;;;;25.69;42.36;98752.66;5000928;28;20207;-93
2021/08/17 11:32:43;;;;;;;9.87;8.87;;;;;;;25.72;42.24;98755.75;4985504;28;20197;-93
2021/08/17 11:35:18;;;;;;;9.50;8.53;;;;;;;25.72;42.43;98761.09;4984723;28;20214;-88
2021/08/17 11:37:50;;;;;;;10.57;9.40;;;;;;;25.74;42.32;98751.03;5000341;28;20631;-92
2021/08/17 11:40:21;;;;;;;9.60;8.60;;;;;;;25.80;42.26;98752.06;4984103;28;20202;-91